sensor_id;sensor_type;location;lat;lon;timestamp;pressure;altitude;pressure_sealevel;temperature;humidity
3968;BME280;9221;42.646;23.380;2022-07-09T00:00:59;94513.47;;;19.58;95.91
3968;BME280;9221;42.646;23.380;2022-07-09T00:03:24;94465.13;;;19.46;96.72
3968;BME280;9221;42.646;23.380;2022-07-09T00:05:49;94511.41;;;19.80;96.61
3968;BME280;9221;42.646;23.380;2022-07-09T00:08:15;94446.41;;;19.46;97.07
3968;BME280;9221;42.646;23.380;2022-07-09T00:10:40;94499.03;;;19.72;97.67
3968;BME280;9221;42.646;23.380;2022-07-09T00:13:06;94477.06;;;19.50;97.90
3968;BME280;9221;42.646;23.380;2022-07-09T00:15:31;94532.59;;;19.75;98.61
3968;BME280;9221;42.646;23.380;2022-07-09T00:17:56;94413.16;;;19.15;99.20
3968;BME280;9221;42.646;23.380;2022-07-09T00:20:23;94530.31;;;19.78;99.03
3968;BME280;9221;42.646;23.380;2022-07-09T00:22:48;94501.94;;;19.71;99.01
3968;BME280;9221;42.646;23.380;2022-07-09T00:25:14;94529.94;;;19.61;98.85
3968;BME280;9221;42.646;23.380;2022-07-09T00:27:39;94488.38;;;19.59;98.92
3968;BME280;9221;42.646;23.380;2022-07-09T00:30:05;94476.66;;;19.53;98.54
3968;BME280;9221;42.646;23.380;2022-07-09T00:32:31;94484.28;;;19.50;98.82
3968;BME280;9221;42.646;23.380;2022-07-09T00:34:56;94437.41;;;19.20;98.36
3968;BME280;9221;42.646;23.380;2022-07-09T00:37:21;94458.41;;;19.23;98.44
3968;BME280;9221;42.646;23.380;2022-07-09T00:39:47;94432.91;;;19.01;98.79
3968;BME280;9221;42.646;23.380;2022-07-09T00:42:12;94433.13;;;19.06;99.15
3968;BME280;9221;42.646;23.380;2022-07-09T00:44:38;94476.28;;;19.30;99.37
3968;BME280;9221;42.646;23.380;2022-07-09T00:47:05;94509.59;;;19.20;100.00
3968;BME280;9221;42.646;23.380;2022-07-09T00:49:35;94427.53;;;18.81;100.00
3968;BME280;9221;42.646;23.380;2022-07-09T00:52:04;94472.78;;;19.02;100.00
3968;BME280;9221;42.646;23.380;2022-07-09T00:54:31;94465.97;;;18.80;100.00
3968;BME280;9221;42.646;23.380;2022-07-09T00:56:57;94491.09;;;18.99;100.00
3968;BME280;9221;42.646;23.380;2022-07-09T00:59:22;94467.44;;;18.96;100.00
3968;BME280;9221;42.646;23.380;2022-07-09T01:01:51;94488.00;;;18.95;100.00
3968;BME280;9221;42.646;23.380;2022-07-09T01:04:18;94414.38;;;18.52;100.00
3968;BME280;9221;42.646;23.380;2022-07-09T01:06:43;94420.97;;;18.56;100.00
3968;BME280;9221;42.646;23.380;2022-07-09T01:09:09;94432.88;;;18.60;100.00
3968;BME280;9221;42.646;23.380;2022-07-09T01:11:35;94460.00;;;18.77;100.00
3968;BME280;9221;42.646;23.380;2022-07-09T01:14:01;94435.53;;;18.47;100.00
3968;BME280;9221;42.646;23.380;2022-07-09T01:16:31;94418.25;;;18.43;100.00
3968;BME280;9221;42.646;23.380;2022-07-09T01:18:57;94457.50;;;18.63;100.00
3968;BME280;9221;42.646;23.380;2022-07-09T01:21:22;94492.88;;;18.78;100.00
3968;BME280;9221;42.646;23.380;2022-07-09T01:23:48;94455.66;;;18.70;100.00
3968;BME280;9221;42.646;23.380;2022-07-09T01:26:14;94405.94;;;18.42;100.00
3968;BME280;9221;42.646;23.380;2022-07-09T01:28:39;94457.53;;;18.69;100.00
3968;BME280;9221;42.646;23.380;2022-07-09T01:31:05;94432.03;;;18.53;100.00
3968;BME280;9221;42.646;23.380;2022-07-09T01:33:30;94405.31;;;18.33;100.00
3968;BME280;9221;42.646;23.380;2022-07-09T01:35:57;94429.75;;;18.50;100.00
3968;BME280;9221;42.646;23.380;2022-07-09T01:38:22;94453.41;;;18.60;100.00
3968;BME280;9221;42.646;23.380;2022-07-09T01:40:48;94455.47;;;18.58;100.00
3968;BME280;9221;42.646;23.380;2022-07-09T01:43:13;94450.94;;;18.58;100.00
3968;BME280;9221;42.646;23.380;2022-07-09T01:45:39;94440.22;;;18.45;100.00
3968;BME280;9221;42.646;23.380;2022-07-09T01:48:04;94445.56;;;18.32;100.00
3968;BME280;9221;42.646;23.380;2022-07-09T01:50:30;94416.16;;;18.18;100.00
3968;BME280;9221;42.646;23.380;2022-07-09T01:52:55;94444.78;;;18.51;100.00
3968;BME280;9221;42.646;23.380;2022-07-09T01:55:20;94447.44;;;18.51;100.00
3968;BME280;9221;42.646;23.380;2022-07-09T01:57:46;94390.28;;;18.25;100.00
3968;BME280;9221;42.646;23.380;2022-07-09T02:00:12;94409.81;;;18.33;100.00
3968;BME280;9221;42.646;23.380;2022-07-09T02:02:37;94436.97;;;18.56;100.00
3968;BME280;9221;42.646;23.380;2022-07-09T02:05:03;94399.97;;;18.26;100.00
3968;BME280;9221;42.646;23.380;2022-07-09T02:07:28;94473.13;;;18.52;100.00
3968;BME280;9221;42.646;23.380;2022-07-09T02:09:54;94465.31;;;18.57;100.00
3968;BME280;9221;42.646;23.380;2022-07-09T02:12:20;94466.56;;;18.55;100.00
3968;BME280;9221;42.646;23.380;2022-07-09T02:14:45;94473.09;;;18.39;100.00
3968;BME280;9221;42.646;23.380;2022-07-09T02:17:11;94445.97;;;18.42;100.00
3968;BME280;9221;42.646;23.380;2022-07-09T02:19:36;94408.16;;;18.18;100.00
3968;BME280;9221;42.646;23.380;2022-07-09T02:22:02;94475.19;;;18.57;100.00
3968;BME280;9221;42.646;23.380;2022-07-09T02:24:28;94465.31;;;18.51;99.99
3968;BME280;9221;42.646;23.380;2022-07-09T02:26:54;94474.38;;;18.56;99.71
3968;BME280;9221;42.646;23.380;2022-07-09T02:29:19;94466.13;;;18.44;99.67
3968;BME280;9221;42.646;23.380;2022-07-09T02:31:44;94467.34;;;18.49;99.58
3968;BME280;9221;42.646;23.380;2022-07-09T02:34:10;94412.25;;;18.14;99.06
3968;BME280;9221;42.646;23.380;2022-07-09T02:36:35;94471.69;;;18.50;99.68
3968;BME280;9221;42.646;23.380;2022-07-09T02:39:00;94482.56;;;18.48;99.57
3968;BME280;9221;42.646;23.380;2022-07-09T02:41:26;94370.25;;;17.81;99.27
3968;BME280;9221;42.646;23.380;2022-07-09T02:43:51;94525.28;;;18.48;99.49
3968;BME280;9221;42.646;23.380;2022-07-09T02:46:17;94449.66;;;18.27;99.07
3968;BME280;9221;42.646;23.380;2022-07-09T02:48:42;94465.28;;;18.37;98.51
3968;BME280;9221;42.646;23.380;2022-07-09T02:51:08;94451.28;;;18.29;98.79
3968;BME280;9221;42.646;23.380;2022-07-09T02:53:33;94475.16;;;18.43;98.59
3968;BME280;9221;42.646;23.380;2022-07-09T02:55:59;94425.81;;;18.19;98.07
3968;BME280;9221;42.646;23.380;2022-07-09T02:58:24;94477.41;;;18.40;98.05
3968;BME280;9221;42.646;23.380;2022-07-09T03:00:50;94434.38;;;18.08;98.35
3968;BME280;9221;42.646;23.380;2022-07-09T03:03:15;94447.13;;;18.06;98.28
3968;BME280;9221;42.646;23.380;2022-07-09T03:05:42;94523.81;;;18.39;98.39
3968;BME280;9221;42.646;23.380;2022-07-09T03:08:08;94528.16;;;18.40;98.51
3968;BME280;9221;42.646;23.380;2022-07-09T03:10:34;94523.81;;;18.39;98.49
3968;BME280;9221;42.646;23.380;2022-07-09T03:12:59;94511.72;;;18.43;98.19
3968;BME280;9221;42.646;23.380;2022-07-09T03:15:25;94513.38;;;18.44;97.95
3968;BME280;9221;42.646;23.380;2022-07-09T03:17:50;94459.28;;;18.29;98.06
3968;BME280;9221;42.646;23.380;2022-07-09T03:20:16;94445.53;;;18.18;97.68
3968;BME280;9221;42.646;23.380;2022-07-09T03:22:41;94494.03;;;18.42;97.69
3968;BME280;9221;42.646;23.380;2022-07-09T03:25:07;94495.69;;;18.43;97.78
3968;BME280;9221;42.646;23.380;2022-07-09T03:27:34;94519.91;;;18.35;97.65
3968;BME280;9221;42.646;23.380;2022-07-09T03:29:59;94497.97;;;18.46;97.60
3968;BME280;9221;42.646;23.380;2022-07-09T03:32:26;94495.28;;;18.46;97.34
3968;BME280;9221;42.646;23.380;2022-07-09T03:34:51;94446.31;;;18.12;96.92
3968;BME280;9221;42.646;23.380;2022-07-09T03:37:19;94523.66;;;18.47;97.23
3968;BME280;9221;42.646;23.380;2022-07-09T03:39:45;94474.75;;;18.40;97.00
3968;BME280;9221;42.646;23.380;2022-07-09T03:42:12;94485.00;;;18.43;96.76
3968;BME280;9221;42.646;23.380;2022-07-09T03:44:38;94446.75;;;18.22;96.97
3968;BME280;9221;42.646;23.380;2022-07-09T03:47:04;94431.53;;;18.16;96.91
3968;BME280;9221;42.646;23.380;2022-07-09T03:49:30;94440.19;;;18.18;97.38
3968;BME280;9221;42.646;23.380;2022-07-09T03:51:55;94504.75;;;18.55;97.72
3968;BME280;9221;42.646;23.380;2022-07-09T03:54:21;94461.41;;;18.40;97.67
3968;BME280;9221;42.646;23.380;2022-07-09T03:56:46;94474.16;;;18.51;97.51
3968;BME280;9221;42.646;23.380;2022-07-09T03:59:12;94437.72;;;18.30;97.51
3968;BME280;9221;42.646;23.380;2022-07-09T04:01:37;94481.34;;;18.64;97.32
3968;BME280;9221;42.646;23.380;2022-07-09T04:04:03;94483.81;;;18.66;97.22
3968;BME280;9221;42.646;23.380;2022-07-09T04:06:29;94439.63;;;18.43;97.33
3968;BME280;9221;42.646;23.380;2022-07-09T04:08:55;94476.84;;;18.65;97.06
3968;BME280;9221;42.646;23.380;2022-07-09T04:11:20;94424.00;;;18.40;96.90
3968;BME280;9221;42.646;23.380;2022-07-09T04:13:46;94432.63;;;18.42;97.05
3968;BME280;9221;42.646;23.380;2022-07-09T04:16:11;94441.28;;;18.44;96.60
3968;BME280;9221;42.646;23.380;2022-07-09T04:18:37;94448.44;;;18.37;96.72
3968;BME280;9221;42.646;23.380;2022-07-09T04:21:02;94503.75;;;18.70;96.76
3968;BME280;9221;42.646;23.380;2022-07-09T04:23:28;94447.19;;;18.33;97.39
3968;BME280;9221;42.646;23.380;2022-07-09T04:25:53;94514.84;;;18.67;97.14
3968;BME280;9221;42.646;23.380;2022-07-09T04:28:19;94561.09;;;18.74;96.96
3968;BME280;9221;42.646;23.380;2022-07-09T04:30:48;94456.66;;;18.42;96.69
3968;BME280;9221;42.646;23.380;2022-07-09T04:33:14;94521.66;;;18.76;96.92
3968;BME280;9221;42.646;23.380;2022-07-09T04:35:39;94509.72;;;18.72;97.11
3968;BME280;9221;42.646;23.380;2022-07-09T04:38:05;94521.66;;;18.76;96.99
3968;BME280;9221;42.646;23.380;2022-07-09T04:40:31;94495.34;;;18.73;96.95
3968;BME280;9221;42.646;23.380;2022-07-09T04:42:57;94445.09;;;18.21;97.30
3968;BME280;9221;42.646;23.380;2022-07-09T04:45:22;94450.50;;;18.35;97.25
3968;BME280;9221;42.646;23.380;2022-07-09T04:47:48;94460.75;;;18.38;97.64
3968;BME280;9221;42.646;23.380;2022-07-09T04:50:13;94481.97;;;18.59;97.35
3968;BME280;9221;42.646;23.380;2022-07-09T04:52:39;94526.16;;;18.69;97.33
3968;BME280;9221;42.646;23.380;2022-07-09T04:55:05;94487.94;;;18.55;97.26
3968;BME280;9221;42.646;23.380;2022-07-09T04:57:31;94440.63;;;18.42;97.28
3968;BME280;9221;42.646;23.380;2022-07-09T05:00:00;94526.56;;;18.72;97.42
3968;BME280;9221;42.646;23.380;2022-07-09T05:02:26;94477.22;;;18.48;97.27
3968;BME280;9221;42.646;23.380;2022-07-09T05:04:51;94486.25;;;18.47;96.82
3968;BME280;9221;42.646;23.380;2022-07-09T05:07:17;94530.28;;;18.65;97.45
3968;BME280;9221;42.646;23.380;2022-07-09T05:09:42;94472.69;;;18.42;97.33
3968;BME280;9221;42.646;23.380;2022-07-09T05:12:08;94513.88;;;18.81;97.60
3968;BME280;9221;42.646;23.380;2022-07-09T05:14:38;94484.22;;;18.63;97.09
3968;BME280;9221;42.646;23.380;2022-07-09T05:17:04;94505.81;;;18.68;96.67
3968;BME280;9221;42.646;23.380;2022-07-09T05:19:30;94467.53;;;18.34;97.09
3968;BME280;9221;42.646;23.380;2022-07-09T05:21:55;94513.00;;;18.60;96.69
3968;BME280;9221;42.646;23.380;2022-07-09T05:24:20;94471.03;;;18.27;96.91
3968;BME280;9221;42.646;23.380;2022-07-09T05:26:46;94511.75;;;18.50;97.38
3968;BME280;9221;42.646;23.380;2022-07-09T05:29:11;94525.31;;;18.61;97.83
3968;BME280;9221;42.646;23.380;2022-07-09T05:31:37;94525.75;;;18.72;97.65
3968;BME280;9221;42.646;23.380;2022-07-09T05:34:03;94477.81;;;18.43;97.13
3968;BME280;9221;42.646;23.380;2022-07-09T05:36:28;94474.34;;;18.43;96.95
3968;BME280;9221;42.646;23.380;2022-07-09T05:38:55;94531.94;;;18.79;96.60
3968;BME280;9221;42.646;23.380;2022-07-09T05:41:20;94537.69;;;18.76;96.28
3968;BME280;9221;42.646;23.380;2022-07-09T05:43:47;94539.31;;;18.64;96.65
3968;BME280;9221;42.646;23.380;2022-07-09T05:46:13;94542.56;;;18.66;96.89
3968;BME280;9221;42.646;23.380;2022-07-09T05:48:38;94504.53;;;18.50;97.26
3968;BME280;9221;42.646;23.380;2022-07-09T05:51:04;94550.41;;;18.74;96.65
3968;BME280;9221;42.646;23.380;2022-07-09T05:53:29;94564.78;;;18.66;96.54
3968;BME280;9221;42.646;23.380;2022-07-09T05:55:55;94538.47;;;18.70;96.63
3968;BME280;9221;42.646;23.380;2022-07-09T05:58:20;94503.94;;;18.48;96.69
3968;BME280;9221;42.646;23.380;2022-07-09T06:00:46;94535.00;;;18.76;96.24
3968;BME280;9221;42.646;23.380;2022-07-09T06:03:11;94530.66;;;18.55;95.67
3968;BME280;9221;42.646;23.380;2022-07-09T06:05:36;94452.50;;;18.19;95.73
3968;BME280;9221;42.646;23.380;2022-07-09T06:08:02;94560.69;;;18.70;95.39
3968;BME280;9221;42.646;23.380;2022-07-09T06:10:27;94564.19;;;18.71;95.68
3968;BME280;9221;42.646;23.380;2022-07-09T06:12:53;94584.53;;;18.72;96.18
3968;BME280;9221;42.646;23.380;2022-07-09T06:15:18;94479.03;;;18.41;96.45
3968;BME280;9221;42.646;23.380;2022-07-09T06:17:43;94524.75;;;18.80;96.43
3968;BME280;9221;42.646;23.380;2022-07-09T06:20:09;94488.56;;;18.64;96.31
3968;BME280;9221;42.646;23.380;2022-07-09T06:22:34;94534.81;;;18.84;96.40
3968;BME280;9221;42.646;23.380;2022-07-09T06:25:00;94530.50;;;18.83;96.19
3968;BME280;9221;42.646;23.380;2022-07-09T06:27:25;94551.31;;;19.01;95.99
3968;BME280;9221;42.646;23.380;2022-07-09T06:29:51;94539.41;;;18.90;95.13
3968;BME280;9221;42.646;23.380;2022-07-09T06:32:16;94498.59;;;18.61;95.39
3968;BME280;9221;42.646;23.380;2022-07-09T06:34:42;94538.94;;;18.80;94.98
3968;BME280;9221;42.646;23.380;2022-07-09T06:37:07;94550.28;;;18.96;95.32
3968;BME280;9221;42.646;23.380;2022-07-09T06:39:33;94553.81;;;19.03;95.89
3968;BME280;9221;42.646;23.380;2022-07-09T06:42:14;94576.84;;;19.10;95.49
3968;BME280;9221;42.646;23.380;2022-07-09T06:44:41;94587.31;;;19.12;95.05
3968;BME280;9221;42.646;23.380;2022-07-09T06:47:06;94556.47;;;19.03;94.63
3968;BME280;9221;42.646;23.380;2022-07-09T06:49:32;94618.16;;;18.94;95.05
3968;BME280;9221;42.646;23.380;2022-07-09T06:51:58;94539.22;;;18.99;95.62
3968;BME280;9221;42.646;23.380;2022-07-09T06:54:24;94558.75;;;19.19;95.70
3968;BME280;9221;42.646;23.380;2022-07-09T06:56:49;94540.66;;;19.15;94.56
3968;BME280;9221;42.646;23.380;2022-07-09T06:59:15;94592.47;;;19.27;93.88
3968;BME280;9221;42.646;23.380;2022-07-09T07:01:41;94549.72;;;19.40;93.65
3968;BME280;9221;42.646;23.380;2022-07-09T07:04:06;94520.06;;;19.28;93.34
3968;BME280;9221;42.646;23.380;2022-07-09T07:06:32;94518.03;;;19.31;92.84
3968;BME280;9221;42.646;23.380;2022-07-09T07:08:57;94474.44;;;19.10;92.16
3968;BME280;9221;42.646;23.380;2022-07-09T07:11:23;94534.47;;;19.54;91.75
3968;BME280;9221;42.646;23.380;2022-07-09T07:13:49;94490.66;;;19.42;91.47
3968;BME280;9221;42.646;23.380;2022-07-09T07:16:15;94548.66;;;19.88;91.16
3968;BME280;9221;42.646;23.380;2022-07-09T07:18:40;94542.91;;;19.85;90.42
3968;BME280;9221;42.646;23.380;2022-07-09T07:21:05;94607.75;;;19.93;89.33
3968;BME280;9221;42.646;23.380;2022-07-09T07:23:31;94575.63;;;19.67;89.51
3968;BME280;9221;42.646;23.380;2022-07-09T07:26:00;94564.91;;;19.73;90.24
3968;BME280;9221;42.646;23.380;2022-07-09T07:28:25;94531.19;;;19.45;91.09
3968;BME280;9221;42.646;23.380;2022-07-09T07:30:50;94527.50;;;19.53;91.78
3968;BME280;9221;42.646;23.380;2022-07-09T07:33:16;94509.38;;;19.35;91.63
3968;BME280;9221;42.646;23.380;2022-07-09T07:35:41;94554.63;;;19.64;91.77
3968;BME280;9221;42.646;23.380;2022-07-09T07:38:08;94569.88;;;19.70;91.60
3968;BME280;9221;42.646;23.380;2022-07-09T07:40:33;94508.16;;;19.44;92.07
3968;BME280;9221;42.646;23.380;2022-07-09T07:42:59;94554.09;;;20.27;93.18
3968;BME280;9221;42.646;23.380;2022-07-09T07:45:24;94513.84;;;20.02;88.15
3968;BME280;9221;42.646;23.380;2022-07-09T07:47:50;94587.75;;;20.16;87.81
3968;BME280;9221;42.646;23.380;2022-07-09T07:50:16;94560.75;;;20.11;87.47
3968;BME280;9221;42.646;23.380;2022-07-09T07:52:41;94561.44;;;19.86;87.96
3968;BME280;9221;42.646;23.380;2022-07-09T07:55:07;94483.88;;;19.46;87.78
3968;BME280;9221;42.646;23.380;2022-07-09T07:57:33;94508.94;;;19.58;87.96
3968;BME280;9221;42.646;23.380;2022-07-09T07:59:58;94566.16;;;19.98;88.20
3968;BME280;9221;42.646;23.380;2022-07-09T08:02:23;94553.78;;;19.97;88.76
3968;BME280;9221;42.646;23.380;2022-07-09T08:04:49;94503.78;;;19.84;88.67
3968;BME280;9221;42.646;23.380;2022-07-09T08:07:14;94593.63;;;20.45;88.15
3968;BME280;9221;42.646;23.380;2022-07-09T08:09:40;94570.47;;;20.64;87.57
3968;BME280;9221;42.646;23.380;2022-07-09T08:12:06;94546.63;;;20.49;86.57
3968;BME280;9221;42.646;23.380;2022-07-09T08:14:31;94557.72;;;20.53;86.36
3968;BME280;9221;42.646;23.380;2022-07-09T08:16:57;94581.22;;;20.57;86.46
3968;BME280;9221;42.646;23.380;2022-07-09T08:19:22;94513.28;;;20.38;86.46
3968;BME280;9221;42.646;23.380;2022-07-09T08:21:48;94565.88;;;20.78;86.83
3968;BME280;9221;42.646;23.380;2022-07-09T08:24:13;94551.66;;;20.77;85.46
3968;BME280;9221;42.646;23.380;2022-07-09T08:26:39;94521.59;;;20.62;85.63
3968;BME280;9221;42.646;23.380;2022-07-09T08:29:04;94524.69;;;20.66;85.85
3968;BME280;9221;42.646;23.380;2022-07-09T08:31:29;94552.66;;;20.83;84.86
3968;BME280;9221;42.646;23.380;2022-07-09T08:33:55;94505.81;;;20.47;84.31
3968;BME280;9221;42.646;23.380;2022-07-09T08:36:20;94509.91;;;20.56;84.94
3968;BME280;9221;42.646;23.380;2022-07-09T08:38:46;94561.34;;;20.78;85.00
3968;BME280;9221;42.646;23.380;2022-07-09T08:41:12;94568.97;;;20.75;85.80
3968;BME280;9221;42.646;23.380;2022-07-09T08:43:38;94570.78;;;20.88;84.68
3968;BME280;9221;42.646;23.380;2022-07-09T08:46:06;94510.41;;;20.33;84.38
3968;BME280;9221;42.646;23.380;2022-07-09T08:48:36;94513.91;;;20.34;84.23
3968;BME280;9221;42.646;23.380;2022-07-09T08:51:02;94578.69;;;20.62;84.89
3968;BME280;9221;42.646;23.380;2022-07-09T08:53:28;94594.78;;;20.69;84.64
3968;BME280;9221;42.646;23.380;2022-07-09T08:55:54;94480.69;;;20.03;84.32
3968;BME280;9221;42.646;23.380;2022-07-09T08:58:20;94516.22;;;20.30;83.68
3968;BME280;9221;42.646;23.380;2022-07-09T09:00:48;94567.59;;;20.59;83.37
3968;BME280;9221;42.646;23.380;2022-07-09T09:03:13;94577.63;;;20.77;82.88
3968;BME280;9221;42.646;23.380;2022-07-09T09:05:39;94555.94;;;20.85;82.61
3968;BME280;9221;42.646;23.380;2022-07-09T09:08:20;94580.56;;;21.07;82.02
3968;BME280;9221;42.646;23.380;2022-07-09T09:10:47;94547.72;;;20.80;81.98
3968;BME280;9221;42.646;23.380;2022-07-09T09:13:14;94587.44;;;20.90;82.48
3968;BME280;9221;42.646;23.380;2022-07-09T09:15:43;94524.16;;;20.43;83.11
3968;BME280;9221;42.646;23.380;2022-07-09T09:18:10;94534.25;;;20.48;83.47
3968;BME280;9221;42.646;23.380;2022-07-09T09:20:36;94570.84;;;20.68;83.37
3968;BME280;9221;42.646;23.380;2022-07-09T09:23:03;94575.22;;;20.69;84.10
3968;BME280;9221;42.646;23.380;2022-07-09T09:25:30;94593.91;;;20.82;83.98
3968;BME280;9221;42.646;23.380;2022-07-09T09:27:59;94543.06;;;20.55;83.90
3968;BME280;9221;42.646;23.380;2022-07-09T09:30:26;94612.44;;;20.84;84.01
3968;BME280;9221;42.646;23.380;2022-07-09T09:32:59;94565.00;;;20.84;84.10
3968;BME280;9221;42.646;23.380;2022-07-09T09:35:29;94526.38;;;20.60;83.85
3968;BME280;9221;42.646;23.380;2022-07-09T09:37:56;94572.41;;;20.95;84.78
3968;BME280;9221;42.646;23.380;2022-07-09T09:40:25;94578.09;;;21.06;83.83
3968;BME280;9221;42.646;23.380;2022-07-09T09:42:51;94586.75;;;21.08;83.53
3968;BME280;9221;42.646;23.380;2022-07-09T09:45:18;94530.34;;;20.89;83.31
3968;BME280;9221;42.646;23.380;2022-07-09T09:47:51;94591.16;;;21.27;83.14
3968;BME280;9221;42.646;23.380;2022-07-09T09:50:21;94567.09;;;21.46;83.25
3968;BME280;9221;42.646;23.380;2022-07-09T09:52:48;94569.00;;;21.71;83.12
3968;BME280;9221;42.646;23.380;2022-07-09T09:55:15;94479.25;;;21.35;82.46
3968;BME280;9221;42.646;23.380;2022-07-09T09:57:41;94513.38;;;21.78;79.69
3968;BME280;9221;42.646;23.380;2022-07-09T10:00:07;94556.81;;;22.12;74.11
3968;BME280;9221;42.646;23.380;2022-07-09T10:02:34;94568.72;;;21.97;73.11
3968;BME280;9221;42.646;23.380;2022-07-09T10:05:03;94549.25;;;21.84;73.63
3968;BME280;9221;42.646;23.380;2022-07-09T10:07:28;94568.72;;;21.97;74.11
3968;BME280;9221;42.646;23.380;2022-07-09T10:09:56;94560.91;;;21.96;73.62
3968;BME280;9221;42.646;23.380;2022-07-09T10:12:37;94548.44;;;21.83;73.67
3968;BME280;9221;42.646;23.380;2022-07-09T10:15:19;94546.38;;;22.04;73.65
3968;BME280;9221;42.646;23.380;2022-07-09T10:17:46;94573.34;;;22.09;73.50
3968;BME280;9221;42.646;23.380;2022-07-09T10:20:11;94617.13;;;21.91;73.34
3968;BME280;9221;42.646;23.380;2022-07-09T10:22:38;94570.81;;;21.95;73.80
3968;BME280;9221;42.646;23.380;2022-07-09T10:25:06;94582.28;;;21.84;74.19
3968;BME280;9221;42.646;23.380;2022-07-09T10:27:45;94487.31;;;21.09;74.50
3968;BME280;9221;42.646;23.380;2022-07-09T10:30:27;94610.84;;;21.53;75.88
3968;BME280;9221;42.646;23.380;2022-07-09T10:33:06;94579.84;;;21.51;76.12
3968;BME280;9221;42.646;23.380;2022-07-09T10:35:52;94582.81;;;21.42;76.61
3968;BME280;9221;42.646;23.380;2022-07-09T10:38:18;94575.84;;;21.35;76.53
3968;BME280;9221;42.646;23.380;2022-07-09T10:40:46;94592.09;;;21.40;76.57
3968;BME280;9221;42.646;23.380;2022-07-09T10:43:13;94530.72;;;21.00;75.94
3968;BME280;9221;42.646;23.380;2022-07-09T10:45:41;94578.34;;;21.29;76.30
3968;BME280;9221;42.646;23.380;2022-07-09T10:48:09;94565.19;;;21.21;75.00
3968;BME280;9221;42.646;23.380;2022-07-09T10:50:45;94522.31;;;20.89;75.04
3968;BME280;9221;42.646;23.380;2022-07-09T10:53:14;94556.91;;;20.98;75.78
3968;BME280;9221;42.646;23.380;2022-07-09T10:55:43;94596.03;;;21.12;75.90
3968;BME280;9221;42.646;23.380;2022-07-09T10:58:19;94594.53;;;21.16;76.46
3968;BME280;9221;42.646;23.380;2022-07-09T11:00:44;94599.03;;;21.22;76.49
3968;BME280;9221;42.646;23.380;2022-07-09T11:03:10;94583.72;;;21.29;75.47
3968;BME280;9221;42.646;23.380;2022-07-09T11:05:44;94552.66;;;20.83;77.27
3968;BME280;9221;42.646;23.380;2022-07-09T11:08:10;94530.81;;;20.79;78.74
3968;BME280;9221;42.646;23.380;2022-07-09T11:10:37;94533.31;;;20.68;80.78
3968;BME280;9221;42.646;23.380;2022-07-09T11:13:04;94592.25;;;20.81;80.84
3968;BME280;9221;42.646;23.380;2022-07-09T11:15:32;94574.97;;;20.63;81.80
3968;BME280;9221;42.646;23.380;2022-07-09T11:18:11;94588.97;;;20.79;81.73
3968;BME280;9221;42.646;23.380;2022-07-09T11:20:45;94522.56;;;20.36;82.15
3968;BME280;9221;42.646;23.380;2022-07-09T11:23:14;94486.63;;;20.05;81.78
3968;BME280;9221;42.646;23.380;2022-07-09T11:25:40;94586.34;;;20.72;82.57
3968;BME280;9221;42.646;23.380;2022-07-09T11:28:06;94566.81;;;20.52;82.75
3968;BME280;9221;42.646;23.380;2022-07-09T11:30:31;94533.94;;;20.24;83.27
3968;BME280;9221;42.646;23.380;2022-07-09T11:33:01;94531.03;;;20.33;82.90
3968;BME280;9221;42.646;23.380;2022-07-09T11:35:31;94573.53;;;20.68;82.27
3968;BME280;9221;42.646;23.380;2022-07-09T11:37:58;94575.38;;;20.81;81.58
3968;BME280;9221;42.646;23.380;2022-07-09T11:40:25;94540.63;;;20.54;81.30
3968;BME280;9221;42.646;23.380;2022-07-09T11:42:51;94522.31;;;20.44;81.22
3968;BME280;9221;42.646;23.380;2022-07-09T11:45:24;94599.84;;;20.91;80.57
3968;BME280;9221;42.646;23.380;2022-07-09T11:47:55;94543.56;;;20.84;80.47
3968;BME280;9221;42.646;23.380;2022-07-09T11:50:28;94564.59;;;20.87;80.01
3968;BME280;9221;42.646;23.380;2022-07-09T11:52:53;94570.59;;;20.83;80.00
3968;BME280;9221;42.646;23.380;2022-07-09T11:55:20;94545.03;;;20.35;80.43
3968;BME280;9221;42.646;23.380;2022-07-09T11:57:57;94526.97;;;20.10;81.65
3968;BME280;9221;42.646;23.380;2022-07-09T12:00:28;94527.03;;;19.90;82.21
3968;BME280;9221;42.646;23.380;2022-07-09T12:02:55;94599.03;;;20.25;81.69
3968;BME280;9221;42.646;23.380;2022-07-09T12:05:35;94590.84;;;20.00;82.28
3968;BME280;9221;42.646;23.380;2022-07-09T12:08:03;94568.03;;;19.90;82.35
3968;BME280;9221;42.646;23.380;2022-07-09T12:10:35;94543.72;;;19.72;82.64
3968;BME280;9221;42.646;23.380;2022-07-09T12:13:03;94599.31;;;19.83;83.47
3968;BME280;9221;42.646;23.380;2022-07-09T12:15:29;94517.97;;;19.71;83.44
3968;BME280;9221;42.646;23.380;2022-07-09T12:17:57;94561.25;;;20.53;81.25
3968;BME280;9221;42.646;23.380;2022-07-09T12:20:24;94567.97;;;20.62;80.37
3968;BME280;9221;42.646;23.380;2022-07-09T12:22:50;94580.22;;;20.52;80.17
3968;BME280;9221;42.646;23.380;2022-07-09T12:25:16;94583.63;;;20.79;80.13
3968;BME280;9221;42.646;23.380;2022-07-09T12:27:42;94569.53;;;20.90;79.82
3968;BME280;9221;42.646;23.380;2022-07-09T12:30:08;94520.19;;;20.59;78.68
3968;BME280;9221;42.646;23.380;2022-07-09T12:32:33;94540.16;;;20.70;79.09
3968;BME280;9221;42.646;23.380;2022-07-09T12:35:00;94544.91;;;20.61;79.22
3968;BME280;9221;42.646;23.380;2022-07-09T12:37:26;94464.78;;;20.08;79.47
3968;BME280;9221;42.646;23.380;2022-07-09T12:39:51;94544.38;;;20.39;79.67
3968;BME280;9221;42.646;23.380;2022-07-09T12:42:18;94517.66;;;20.26;79.88
3968;BME280;9221;42.646;23.380;2022-07-09T12:44:44;94549.47;;;20.54;80.07
3968;BME280;9221;42.646;23.380;2022-07-09T12:47:09;94548.69;;;20.47;80.33
3968;BME280;9221;42.646;23.380;2022-07-09T12:49:35;94556.03;;;20.58;80.17
3968;BME280;9221;42.646;23.380;2022-07-09T12:52:00;94551.91;;;20.69;80.06
3968;BME280;9221;42.646;23.380;2022-07-09T12:54:26;94575.81;;;20.71;79.22
3968;BME280;9221;42.646;23.380;2022-07-09T12:56:51;94567.56;;;20.66;79.01
3968;BME280;9221;42.646;23.380;2022-07-09T12:59:17;94506.53;;;20.29;78.67
3968;BME280;9221;42.646;23.380;2022-07-09T13:01:43;94559.41;;;20.47;79.64
3968;BME280;9221;42.646;23.380;2022-07-09T13:04:08;94505.94;;;20.20;79.09
3968;BME280;9221;42.646;23.380;2022-07-09T13:06:34;94564.31;;;20.50;79.31